Time;durP1;ratioP1;P1;durP2;ratioP2;P2;SDS_P1;SDS_P2;PMS_P1;PMS_P2;Temp;Humidity;BMP_temperature;BMP_pressure;BME280_temperature;BME280_humidity;BME280_pressure;Samples;Min_cycle;Max_cycle;Signal;HPM_P1;HPM_P2
2022/05/27 00:00:49;;;;;;;14.70;3.38;;;13.90;99.90;;;;;;5148620;27;20087;-79
2022/05/27 00:03:15;;;;;;;18.40;3.17;;;13.80;99.90;;;;;;5154078;27;20070;-78
2022/05/27 00:05:41;;;;;;;14.45;3.40;;;13.80;99.90;;;;;;5150223;27;20478;-80
2022/05/27 00:08:08;;;;;;;13.23;2.85;;;13.80;99.90;;;;;;5115280;28;20537;-79
2022/05/27 00:10:34;;;;;;;9.65;3.13;;;13.80;99.90;;;;;;5115704;27;20115;-78
2022/05/27 00:12:59;;;;;;;17.17;3.67;;;13.80;99.90;;;;;;5153156;27;20039;-78
2022/05/27 00:15:25;;;;;;;16.42;3.42;;;13.80;99.90;;;;;;5143932;27;20043;-79
2022/05/27 00:17:51;;;;;;;15.40;3.10;;;13.80;99.90;;;;;;5154980;27;20078;-77
2022/05/27 00:20:17;;;;;;;19.63;3.83;;;13.80;99.90;;;;;;5122226;28;20051;-78
2022/05/27 00:22:43;;;;;;;18.95;3.63;;;13.70;99.90;;;;;;5135155;27;20038;-78
2022/05/27 00:25:10;;;;;;;18.08;3.63;;;13.70;99.90;;;;;;5149292;27;20398;-79
2022/05/27 00:27:36;;;;;;;19.48;4.15;;;13.70;99.90;;;;;;5150266;27;20070;-78
2022/05/27 00:30:03;;;;;;;22.25;3.72;;;13.70;99.90;;;;;;5152351;27;20035;-78
2022/05/27 00:32:29;;;;;;;14.57;3.10;;;13.70;99.90;;;;;;5134404;28;20090;-78
2022/05/27 00:34:55;;;;;;;24.73;4.40;;;13.60;99.90;;;;;;5133533;27;20047;-78
2022/05/27 00:37:21;;;;;;;16.30;3.50;;;13.60;99.90;;;;;;5133978;27;20050;-79
2022/05/27 00:39:46;;;;;;;21.65;4.57;;;13.60;99.90;;;;;;5115134;27;20389;-79
2022/05/27 00:42:12;;;;;;;15.85;3.05;;;13.60;99.90;;;;;;5116703;28;20044;-79
2022/05/27 00:44:38;;;;;;;18.42;3.90;;;13.50;99.90;;;;;;5124621;27;20134;-78
2022/05/27 00:47:08;;;;;;;17.05;4.28;;;13.50;99.90;;;;;;5145815;27;20039;-78
2022/05/27 00:49:43;;;;;;;19.48;3.70;;;13.50;99.90;;;;;;5114249;27;20047;-78
2022/05/27 00:52:12;;;;;;;16.40;3.40;;;13.50;99.90;;;;;;5134149;28;20128;-78
2022/05/27 00:54:40;;;;;;;25.08;4.85;;;13.40;99.90;;;;;;5134209;27;20043;-78
2022/05/27 00:57:14;;;;;;;16.17;3.60;;;13.40;99.90;;;;;;5153801;27;20054;-78
2022/05/27 00:59:54;;;;;;;26.38;3.70;;;13.30;99.90;;;;;;5131717;27;20043;-79
2022/05/27 01:02:20;;;;;;;18.77;3.55;;;13.30;99.90;;;;;;5154646;27;20047;-79
2022/05/27 01:04:48;;;;;;;24.70;3.53;;;13.30;99.90;;;;;;5137327;27;20053;-79
2022/05/27 01:07:13;;;;;;;24.23;4.22;;;13.20;99.90;;;;;;5137891;27;20401;-79
2022/05/27 01:09:42;;;;;;;19.98;3.28;;;13.20;99.90;;;;;;5148466;27;20129;-78
2022/05/27 01:12:22;;;;;;;17.77;3.13;;;13.20;99.90;;;;;;5139403;27;20101;-78
2022/05/27 01:15:08;;;;;;;20.40;3.92;;;13.20;99.90;;;;;;5147016;27;20103;-79
2022/05/27 01:17:40;;;;;;;25.23;4.35;;;13.20;99.90;;;;;;5138843;27;20047;-79
2022/05/27 01:20:19;;;;;;;13.70;2.45;;;13.10;99.90;;;;;;5154481;27;20057;-79
2022/05/27 01:23:23;;;;;;;19.25;3.42;;;13.10;99.90;;;;;;5139741;27;20505;-79
2022/05/27 01:26:06;;;;;;;22.80;3.30;;;13.00;99.90;;;;;;5126187;27;20489;-79
2022/05/27 01:28:43;;;;;;;18.48;3.33;;;13.00;99.90;;;;;;5144445;27;20035;-78
2022/05/27 01:31:15;;;;;;;23.10;3.53;;;13.00;99.90;;;;;;5136536;27;20393;-79
2022/05/27 01:34:12;;;;;;;21.83;3.53;;;12.90;99.90;;;;;;5136785;27;20395;-79
2022/05/27 01:37:05;;;;;;;21.75;3.90;;;12.90;99.90;;;;;;5132208;27;20051;-78
2022/05/27 01:39:36;;;;;;;24.02;3.88;;;12.80;99.90;;;;;;5149340;27;20042;-79
2022/05/27 01:42:23;;;;;;;21.48;5.30;;;12.80;99.90;;;;;;5130580;27;20047;-78
2022/05/27 01:45:06;;;;;;;21.60;3.67;;;12.70;99.90;;;;;;5118108;27;20509;-79
2022/05/27 01:47:43;;;;;;;28.60;4.30;;;12.70;99.90;;;;;;5117433;27;20047;-79
2022/05/27 01:50:24;;;;;;;21.88;3.20;;;12.70;99.90;;;;;;5128498;27;20057;-79
2022/05/27 01:52:59;;;;;;;20.38;3.78;;;12.60;99.90;;;;;;5135303;27;20034;-79
2022/05/27 01:55:31;;;;;;;;;;;12.60;99.90;;;;;;5137259;27;20043;-79
2022/05/27 01:58:11;;;;;;;19.70;3.67;;;12.50;99.90;;;;;;5136365;27;20008;-79
2022/05/27 02:00:39;;;;;;;19.90;3.13;;;12.50;99.90;;;;;;5135632;27;20517;-79
2022/05/27 02:03:09;;;;;;;17.52;3.92;;;12.50;99.90;;;;;;5117971;27;20051;-79
2022/05/27 02:05:47;;;;;;;16.23;3.90;;;12.50;99.90;;;;;;5118298;27;20515;-79
2022/05/27 02:08:25;;;;;;;21.48;3.78;;;12.50;99.90;;;;;;5146780;27;20084;-79
2022/05/27 02:11:04;;;;;;;24.00;3.45;;;12.50;99.90;;;;;;5156713;27;20115;-78
2022/05/27 02:13:41;;;;;;;15.43;4.07;;;12.40;99.90;;;;;;5116988;27;20039;-78
2022/05/27 02:16:12;;;;;;;24.67;3.58;;;12.40;99.90;;;;;;5136080;27;20058;-79
2022/05/27 02:18:47;;;;;;;19.20;3.97;;;12.40;99.90;;;;;;5135231;27;20135;-78
2022/05/27 02:21:20;;;;;;;24.00;4.05;;;12.30;99.90;;;;;;5135660;27;20050;-79
2022/05/27 02:23:56;;;;;;;20.15;4.38;;;12.30;99.90;;;;;;5117386;27;20448;-79
2022/05/27 02:26:28;;;;;;;16.55;3.50;;;12.30;99.90;;;;;;5149194;27;20534;-79
2022/05/27 02:29:02;;;;;;;20.73;3.60;;;12.30;99.90;;;;;;5134943;27;20035;-79
2022/05/27 02:31:31;;;;;;;14.00;3.20;;;12.20;99.90;;;;;;5119733;27;20043;-79
2022/05/27 02:37:05;;;;;;;15.63;3.50;;;12.10;99.90;;;;;;5137535;27;20054;-79
2022/05/27 02:39:32;;;;;;;17.98;3.47;;;12.10;99.90;;;;;;5137244;27;20047;-79
2022/05/27 02:42:14;;;;;;;22.25;4.60;;;12.00;99.90;;;;;;5144503;27;20047;-79
2022/05/27 02:44:56;;;;;;;24.90;4.60;;;12.00;99.90;;;;;;5116812;27;20063;-79
2022/05/27 02:47:31;;;;;;;16.33;3.28;;;12.00;99.90;;;;;;5135325;27;20134;-79
2022/05/27 02:50:08;;;;;;;21.13;3.65;;;11.90;99.90;;;;;;5134981;27;20125;-79
2022/05/27 02:52:46;;;;;;;17.88;4.50;;;11.90;99.90;;;;;;5135457;27;20051;-79
2022/05/27 02:55:23;;;;;;;23.23;3.35;;;11.90;99.90;;;;;;5150346;27;20035;-79
2022/05/27 02:57:52;;;;;;;25.27;3.63;;;11.80;99.90;;;;;;5143775;27;20047;-79
2022/05/27 03:00:27;;;;;;;25.15;3.55;;;11.80;99.90;;;;;;5116378;27;20062;-79
2022/05/27 03:02:53;;;;;;;19.90;3.30;;;11.80;99.90;;;;;;5134538;27;20047;-79
2022/05/27 03:05:25;;;;;;;23.98;3.83;;;11.70;99.90;;;;;;5134775;27;20058;-79
2022/05/27 03:08:20;;;;;;;25.20;4.18;;;11.70;99.90;;;;;;5135273;27;20602;-79
2022/05/27 03:10:56;;;;;;;20.52;3.38;;;11.70;99.90;;;;;;5153005;27;20046;-79
2022/05/27 03:13:29;;;;;;;21.65;3.35;;;11.60;99.90;;;;;;5137566;27;20051;-79
2022/05/27 03:16:07;;;;;;;22.05;3.50;;;11.60;99.90;;;;;;5137969;27;20062;-79
2022/05/27 03:18:35;;;;;;;28.00;5.25;;;11.60;99.90;;;;;;5126819;27;20106;-79
2022/05/27 03:21:29;;;;;;;11.43;2.75;;;11.60;99.90;;;;;;5135233;27;20049;-79
2022/05/27 03:24:18;;;;;;;16.75;3.45;;;11.60;99.90;;;;;;5123139;27;20501;-79
2022/05/27 03:26:58;;;;;;;25.08;3.50;;;11.60;99.90;;;;;;5115833;27;20130;-79
2022/05/27 03:29:33;;;;;;;15.73;3.83;;;11.60;99.90;;;;;;5154413;27;20039;-79
2022/05/27 03:32:12;;;;;;;22.65;3.83;;;11.50;99.90;;;;;;5154946;27;20034;-79
2022/05/27 03:34:50;;;;;;;16.30;3.95;;;11.50;99.90;;;;;;5153027;27;20035;-79
2022/05/27 03:37:35;;;;;;;20.10;3.78;;;11.50;99.90;;;;;;5153200;27;20049;-79
2022/05/27 03:40:13;;;;;;;18.42;3.42;;;11.50;99.90;;;;;;5134120;27;20183;-79
2022/05/27 03:42:40;;;;;;;23.27;3.95;;;11.50;99.90;;;;;;5117120;27;20043;-79
2022/05/27 03:45:15;;;;;;;22.10;3.70;;;11.50;99.90;;;;;;5115526;27;20147;-79
2022/05/27 03:47:43;;;;;;;19.58;3.80;;;11.50;99.90;;;;;;5134304;27;20054;-79
2022/05/27 03:50:18;;;;;;;27.33;3.88;;;11.50;99.90;;;;;;5134774;27;20118;-79
2022/05/27 03:52:47;;;;;;;19.42;4.18;;;11.60;99.90;;;;;;5133520;27;20379;-79
2022/05/27 03:55:16;;;;;;;18.23;3.78;;;11.60;99.90;;;;;;5134667;27;20043;-79
2022/05/27 03:57:42;;;;;;;21.15;3.13;;;11.60;99.90;;;;;;5116088;28;20050;-79
2022/05/27 04:00:09;;;;;;;20.05;3.30;;;11.60;99.90;;;;;;5133419;27;20486;-79
2022/05/27 04:02:36;;;;;;;17.73;4.50;;;11.60;99.90;;;;;;5115635;27;20047;-79
2022/05/27 04:05:03;;;;;;;19.20;3.78;;;11.60;99.90;;;;;;5144600;27;20066;-79
2022/05/27 04:07:29;;;;;;;20.02;3.63;;;11.60;99.90;;;;;;5136417;27;20516;-79
2022/05/27 04:09:55;;;;;;;20.25;3.85;;;11.70;99.90;;;;;;5150147;27;20113;-80
2022/05/27 04:12:21;;;;;;;18.42;3.88;;;11.60;99.90;;;;;;5123750;27;20051;-79
2022/05/27 04:14:51;;;;;;;21.40;4.25;;;11.70;99.90;;;;;;5115423;28;20055;-79
2022/05/27 04:17:32;;;;;;;16.13;3.30;;;11.70;99.90;;;;;;5115584;28;20117;-78
2022/05/27 04:20:08;;;;;;;19.67;4.13;;;11.70;99.90;;;;;;5116181;28;20386;-79
2022/05/27 04:22:34;;;;;;;27.25;3.65;;;11.80;99.90;;;;;;5134999;27;20035;-78
2022/05/27 04:25:00;;;;;;;18.85;3.40;;;11.80;99.90;;;;;;5134144;27;20039;-78
2022/05/27 04:27:26;;;;;;;16.77;3.20;;;11.80;99.90;;;;;;5115220;28;20039;-79
2022/05/27 04:29:53;;;;;;;24.15;3.42;;;11.80;99.90;;;;;;5134257;28;20549;-79
2022/05/27 04:32:21;;;;;;;13.13;3.83;;;11.80;99.90;;;;;;5142787;27;20035;-79
2022/05/27 04:34:48;;;;;;;15.75;2.90;;;11.80;99.90;;;;;;5136118;27;20047;-79
2022/05/27 04:37:13;;;;;;;16.00;2.45;;;11.90;99.90;;;;;;5127240;27;20043;-79
2022/05/27 04:39:39;;;;;;;16.40;3.75;;;11.90;99.90;;;;;;5138639;27;20073;-79
2022/05/27 04:42:06;;;;;;;15.30;2.83;;;11.90;99.90;;;;;;5137411;27;20039;-79
2022/05/27 04:44:33;;;;;;;23.25;4.57;;;11.90;99.90;;;;;;5138243;27;20383;-79
2022/05/27 04:46:59;;;;;;;18.52;3.13;;;11.90;99.90;;;;;;5119187;27;20050;-80
2022/05/27 04:52:09;;;;;;;22.83;4.75;;;11.90;99.90;;;;;;5137786;27;20058;-79
2022/05/27 04:54:35;;;;;;;15.45;3.15;;;11.90;99.90;;;;;;5119865;27;20064;-79
2022/05/27 04:57:01;;;;;;;20.02;3.08;;;11.90;99.90;;;;;;5136664;27;20394;-78
2022/05/27 04:59:27;;;;;;;14.88;4.20;;;11.80;99.90;;;;;;5137612;27;20401;-79
2022/05/27 05:01:53;;;;;;;18.77;2.95;;;11.80;99.90;;;;;;5119191;27;20039;-79
2022/05/27 05:04:18;;;;;;;19.60;3.45;;;11.80;99.90;;;;;;5148857;27;20039;-79
2022/05/27 05:06:45;;;;;;;13.95;2.35;;;11.80;99.90;;;;;;5127830;27;20401;-80
2022/05/27 05:09:11;;;;;;;22.33;3.00;;;11.80;99.90;;;;;;5137214;27;20097;-79
2022/05/27 05:11:37;;;;;;;11.65;3.00;;;11.80;99.90;;;;;;5136329;27;20035;-80
2022/05/27 05:14:03;;;;;;;16.48;3.85;;;11.90;99.90;;;;;;5150800;27;20042;-79
2022/05/27 05:16:29;;;;;;;15.00;3.33;;;11.90;99.90;;;;;;5136837;27;20117;-80
2022/05/27 05:18:55;;;;;;;11.88;2.70;;;12.00;99.90;;;;;;5137671;27;20031;-79
2022/05/27 05:21:21;;;;;;;22.80;3.38;;;12.00;99.90;;;;;;5137403;27;20047;-79
2022/05/27 05:23:46;;;;;;;13.80;3.88;;;11.90;99.90;;;;;;5141919;27;20039;-79
2022/05/27 05:26:12;;;;;;;12.02;2.42;;;11.90;99.90;;;;;;5136835;27;20041;-79
2022/05/27 05:28:38;;;;;;;12.85;2.22;;;11.90;99.90;;;;;;5136728;27;20509;-79
2022/05/27 05:31:06;;;;;;;20.40;3.17;;;12.00;99.90;;;;;;5153364;27;20089;-78
2022/05/27 05:33:32;;;;;;;15.93;2.95;;;12.10;99.90;;;;;;5158162;27;20042;-80
2022/05/27 05:35:58;;;;;;;12.00;2.97;;;12.10;99.90;;;;;;5140567;27;20039;-79
2022/05/27 05:38:26;;;;;;;14.52;2.95;;;12.20;99.90;;;;;;5157342;27;20039;-79
2022/05/27 05:40:52;;;;;;;19.92;4.72;;;12.30;99.90;;;;;;5139151;27;20074;-80
2022/05/27 05:43:17;;;;;;;12.65;2.50;;;12.40;99.90;;;;;;5118774;27;20113;-79
2022/05/27 05:45:43;;;;;;;12.02;3.03;;;12.50;99.90;;;;;;5138459;27;20455;-80
2022/05/27 05:48:09;;;;;;;17.60;3.17;;;12.50;99.90;;;;;;5133957;27;20505;-79
2022/05/27 05:50:35;;;;;;;14.60;2.97;;;12.60;99.90;;;;;;5128264;27;20130;-79
2022/05/27 05:53:01;;;;;;;17.67;3.45;;;12.60;99.90;;;;;;5136232;27;20039;-79
2022/05/27 05:55:27;;;;;;;15.68;3.42;;;12.70;99.90;;;;;;5144437;27;20049;-80
2022/05/27 05:57:53;;;;;;;15.32;3.47;;;12.60;99.90;;;;;;5153224;27;20043;-80
2022/05/27 06:00:25;;;;;;;9.70;2.45;;;12.70;99.90;;;;;;5135738;27;20091;-80
2022/05/27 06:02:52;;;;;;;16.60;3.55;;;12.70;99.90;;;;;;5118129;27;20055;-80
2022/05/27 06:05:18;;;;;;;16.27;3.80;;;12.70;99.90;;;;;;5154429;27;20147;-79
2022/05/27 06:07:44;;;;;;;18.02;3.80;;;12.70;99.90;;;;;;5139658;27;20447;-79
2022/05/27 06:10:12;;;;;;;14.23;3.35;;;12.70;99.90;;;;;;5137917;27;20039;-81
2022/05/27 06:12:38;;;;;;;16.70;3.08;;;12.80;99.90;;;;;;5100545;27;20508;-79
2022/05/27 06:15:07;;;;;;;16.98;4.47;;;12.80;99.90;;;;;;5122220;27;20039;-79
2022/05/27 06:17:33;;;;;;;17.20;3.97;;;12.90;99.90;;;;;;5135942;27;20054;-80
2022/05/27 06:19:59;;;;;;;16.42;3.50;;;13.00;99.90;;;;;;5134483;27;20038;-80
2022/05/27 06:22:25;;;;;;;21.65;3.40;;;13.00;99.90;;;;;;5155840;27;20087;-79
2022/05/27 06:24:51;;;;;;;14.13;3.20;;;13.10;99.90;;;;;;5132859;27;20440;-79
2022/05/27 06:27:17;;;;;;;15.40;3.25;;;13.10;99.90;;;;;;5140909;27;20039;-79
2022/05/27 06:35:12;;;;;;;12.02;2.78;;;13.10;99.90;;;;;;5137250;27;20058;-81
2022/05/27 06:37:37;;;;;;;12.23;2.72;;;13.10;99.90;;;;;;5137007;27;20047;-78
2022/05/27 06:40:06;;;;;;;16.02;4.05;;;13.10;99.90;;;;;;5135908;27;20043;-77
2022/05/27 06:42:31;;;;;;;12.57;2.33;;;13.20;99.90;;;;;;5145095;27;20099;-77
2022/05/27 06:44:57;;;;;;;13.23;2.80;;;13.20;99.90;;;;;;5156546;27;20470;-76
2022/05/27 06:47:23;;;;;;;11.90;2.92;;;13.20;99.90;;;;;;5148119;27;20041;-78
2022/05/27 06:49:49;;;;;;;15.32;2.80;;;13.20;99.90;;;;;;5146314;27;20435;-77
2022/05/27 06:52:15;;;;;;;13.50;2.83;;;13.20;99.90;;;;;;5130514;27;20129;-78
2022/05/27 06:54:42;;;;;;;12.60;2.75;;;13.20;99.90;;;;;;5135197;27;20088;-77
2022/05/27 06:57:09;;;;;;;23.70;4.25;;;13.20;99.90;;;;;;5116515;27;20086;-78
2022/05/27 06:59:38;;;;;;;17.45;3.88;;;13.30;99.90;;;;;;5142324;27;20367;-79
2022/05/27 07:02:06;;;;;;;10.02;2.30;;;13.30;99.90;;;;;;5146166;27;20058;-78
2022/05/27 07:04:31;;;;;;;20.48;3.38;;;13.40;99.90;;;;;;5134784;27;20039;-77
2022/05/27 07:06:57;;;;;;;13.77;3.08;;;13.40;99.90;;;;;;5134580;27;20072;-78
2022/05/27 07:09:25;;;;;;;12.45;2.67;;;13.30;99.90;;;;;;5149171;27;20043;-78
2022/05/27 07:11:53;;;;;;;15.20;3.05;;;13.40;99.90;;;;;;5133852;27;20030;-78
2022/05/27 07:14:19;;;;;;;19.00;2.85;;;13.50;99.90;;;;;;5138201;27;20039;-78
2022/05/27 07:16:46;;;;;;;10.65;2.70;;;13.50;99.90;;;;;;5134363;27;20054;-79
2022/05/27 07:19:19;;;;;;;20.10;3.38;;;13.50;99.90;;;;;;5137733;27;20046;-78
2022/05/27 07:21:47;;;;;;;16.48;3.58;;;13.50;99.90;;;;;;5134924;27;20092;-77
2022/05/27 07:24:16;;;;;;;9.70;2.65;;;13.40;99.90;;;;;;5117579;27;20043;-78
2022/05/27 07:26:44;;;;;;;14.02;2.67;;;13.40;99.90;;;;;;5144367;27;20485;-80
2022/05/27 07:29:12;;;;;;;14.57;3.22;;;13.40;99.90;;;;;;5155516;27;20500;-78
2022/05/27 07:31:39;;;;;;;14.93;3.72;;;13.50;99.90;;;;;;5119492;27;20513;-77
2022/05/27 07:34:05;;;;;;;16.17;4.18;;;13.70;99.90;;;;;;5129347;27;20046;-77
2022/05/27 07:36:33;;;;;;;18.38;3.13;;;13.80;99.90;;;;;;5155733;27;20363;-81
2022/05/27 07:38:59;;;;;;;18.13;2.70;;;13.80;99.90;;;;;;5119672;27;20047;-78
2022/05/27 07:41:27;;;;;;;12.05;2.72;;;13.70;99.90;;;;;;5148319;27;20102;-78
2022/05/27 07:43:54;;;;;;;16.33;3.53;;;13.70;99.90;;;;;;5136213;27;20045;-79
2022/05/27 07:46:22;;;;;;;18.83;3.78;;;13.60;99.90;;;;;;5143185;27;20095;-81
2022/05/27 07:48:47;;;;;;;11.98;3.20;;;13.70;99.90;;;;;;5142610;27;20035;-80
2022/05/27 07:51:13;;;;;;;13.23;2.58;;;13.90;99.90;;;;;;5145200;27;20031;-79
2022/05/27 07:53:42;;;;;;;18.02;2.45;;;14.00;99.90;;;;;;5133872;27;20043;-79
2022/05/27 07:56:09;;;;;;;14.93;2.70;;;14.00;99.90;;;;;;5152654;27;20388;-78
2022/05/27 07:58:35;;;;;;;14.15;3.33;;;13.90;99.90;;;;;;5151991;27;20039;-80
2022/05/27 08:01:02;;;;;;;15.32;3.78;;;13.80;99.90;;;;;;5149978;27;20073;-80
2022/05/27 08:03:28;;;;;;;20.15;3.50;;;13.60;99.90;;;;;;5133845;27;20726;-79
2022/05/27 08:05:55;;;;;;;17.02;3.50;;;13.60;99.90;;;;;;5118702;27;20085;-80
2022/05/27 08:08:22;;;;;;;15.85;2.92;;;13.70;99.90;;;;;;5135503;27;20036;-84
2022/05/27 08:10:48;;;;;;;12.38;3.20;;;13.70;99.90;;;;;;5151916;27;20054;-78
2022/05/27 08:13:13;;;;;;;9.93;3.08;;;13.80;99.90;;;;;;5158194;27;20045;-77
2022/05/27 08:15:40;;;;;;;16.30;3.40;;;13.80;99.90;;;;;;5151427;27;20039;-81
2022/05/27 08:18:06;;;;;;;16.30;3.83;;;13.80;99.90;;;;;;5141309;27;20035;-80
2022/05/27 08:20:35;;;;;;;13.85;3.38;;;13.80;99.90;;;;;;5139386;27;20050;-78
2022/05/27 08:23:01;;;;;;;11.75;2.75;;;13.90;99.90;;;;;;5146756;27;20042;-78
2022/05/27 08:25:29;;;;;;;16.40;3.33;;;13.90;99.90;;;;;;5141156;27;20039;-81
2022/05/27 08:27:56;;;;;;;14.20;2.75;;;13.90;99.90;;;;;;5120952;27;20058;-80
2022/05/27 08:30:28;;;;;;;18.65;3.85;;;13.90;99.90;;;;;;5134474;27;20035;-84
2022/05/27 08:32:55;;;;;;;11.88;2.13;;;14.00;99.90;;;;;;5124612;27;20051;-81
2022/05/27 08:38:09;;;;;;;13.38;2.83;;;14.00;99.90;;;;;;5154130;27;20042;-81
2022/05/27 08:41:03;;;;;;;20.13;2.80;;;14.00;99.90;;;;;;5140311;27;20054;-82
2022/05/27 08:43:47;;;;;;;16.40;3.80;;;14.10;99.90;;;;;;5161203;27;20042;-80
2022/05/27 08:46:12;;;;;;;11.70;2.08;;;14.10;99.90;;;;;;5149676;27;20035;-79
2022/05/27 08:48:42;;;;;;;11.93;2.70;;;14.10;99.90;;;;;;5159566;27;20050;-79
2022/05/27 08:51:21;;;;;;;18.95;2.63;;;13.80;99.90;;;;;;5123797;27;20042;-80
2022/05/27 08:53:54;;;;;;;8.95;2.10;;;14.10;99.90;;;;;;5154286;27;20081;-80
2022/05/27 08:59:28;;;;;;;11.63;2.67;;;14.00;99.90;;;;;;5140757;27;20043;-80
2022/05/27 09:02:32;;;;;;;18.58;3.33;;;14.10;99.90;;;;;;5122948;27;20047;-81
2022/05/27 09:05:15;;;;;;;10.50;2.65;;;14.10;99.90;;;;;;5124868;27;20076;-80
2022/05/27 09:08:12;;;;;;;15.48;2.80;;;14.10;99.90;;;;;;5106599;27;20914;-79
2022/05/27 09:11:01;;;;;;;19.38;3.25;;;14.00;99.90;;;;;;5091791;28;20510;-78
2022/05/27 09:13:40;;;;;;;15.88;3.95;;;14.00;99.90;;;;;;5069745;28;20063;-79
2022/05/27 09:16:16;;;;;;;14.68;2.92;;;14.20;99.90;;;;;;5069527;28;20041;-79
2022/05/27 09:19:25;;;;;;;12.93;2.80;;;14.20;99.90;;;;;;5070770;28;20045;-77
2022/05/27 09:22:05;;;;;;;12.23;2.92;;;14.20;99.90;;;;;;5053910;28;20488;-80
2022/05/27 09:25:12;;;;;;;15.93;3.63;;;14.20;99.90;;;;;;5088585;28;20476;-83
2022/05/27 09:28:04;;;;;;;18.23;3.88;;;14.20;99.90;;;;;;5088318;28;20048;-81
2022/05/27 09:30:34;;;;;;;19.40;3.58;;;14.20;99.90;;;;;;5124254;27;20036;-78
2022/05/27 09:33:10;;;;;;;15.30;3.30;;;14.20;99.90;;;;;;5079384;28;20044;-81
2022/05/27 09:36:06;;;;;;;16.33;3.33;;;14.20;99.90;;;;;;5097478;28;20043;-81
2022/05/27 09:38:35;;;;;;;11.98;3.38;;;14.20;99.90;;;;;;5069392;28;20045;-79
2022/05/27 09:41:39;;;;;;;11.57;2.40;;;14.20;99.90;;;;;;5070698;28;20123;-82
2022/05/27 09:44:32;;;;;;;14.10;2.58;;;14.30;99.90;;;;;;5066640;28;20128;-79
2022/05/27 09:46:59;;;;;;;13.18;2.42;;;15.30;99.90;;;;;;5082631;28;20067;-79
2022/05/27 09:49:25;;;;;;;17.17;3.10;;;14.20;99.90;;;;;;5078581;28;20037;-80
2022/05/27 09:51:51;;;;;;;14.38;3.58;;;14.10;99.90;;;;;;5068930;28;20047;-78
2022/05/27 09:54:33;;;;;;;10.48;2.35;;;14.10;99.90;;;;;;5072840;28;20041;-82
2022/05/27 09:57:16;;;;;;;14.60;2.30;;;14.10;99.90;;;;;;5068206;28;20036;-80
2022/05/27 09:59:45;;;;;;;15.63;2.70;;;14.10;99.90;;;;;;5085281;28;20055;-81
2022/05/27 10:02:21;;;;;;;14.30;3.83;;;14.20;99.90;;;;;;5069674;28;20411;-79
2022/05/27 10:04:52;;;;;;;16.75;3.40;;;14.40;99.90;;;;;;5068046;28;20496;-80
2022/05/27 10:07:38;;;;;;;18.02;3.72;;;14.60;99.90;;;;;;5071924;28;20132;-78
2022/05/27 10:10:31;;;;;;;14.38;2.50;;;14.70;99.90;;;;;;5069848;28;20072;-83
2022/05/27 10:13:13;;;;;;;17.52;3.95;;;14.70;99.90;;;;;;5091129;28;20044;-79
2022/05/27 10:15:39;;;;;;;14.25;3.58;;;14.70;99.90;;;;;;5103788;28;20503;-81
2022/05/27 10:18:26;;;;;;;10.30;2.55;;;14.70;99.90;;;;;;5083563;28;20174;-81
2022/05/27 10:20:56;;;;;;;15.07;3.03;;;14.70;99.90;;;;;;5055366;28;20102;-80
2022/05/27 10:23:26;;;;;;;18.38;3.38;;;14.80;99.90;;;;;;5057995;28;20045;-79
2022/05/27 10:25:52;;;;;;;11.77;2.03;;;14.80;99.90;;;;;;5055660;28;20045;-79
2022/05/27 10:28:31;;;;;;;11.48;2.83;;;14.90;99.90;;;;;;5063823;28;20124;-81
2022/05/27 10:31:04;;;;;;;14.55;2.10;;;15.00;99.90;;;;;;5074489;28;20181;-80
2022/05/27 10:33:42;;;;;;;14.10;2.55;;;15.00;99.90;;;;;;5061428;28;20052;-77
2022/05/27 10:36:30;;;;;;;15.75;3.08;;;14.90;99.90;;;;;;5064752;28;20131;-80
2022/05/27 10:39:24;;;;;;;11.70;2.22;;;14.60;99.90;;;;;;5074366;28;20119;-79
2022/05/27 10:41:50;;;;;;;14.57;2.83;;;14.60;99.90;;;;;;5072432;28;20048;-80
2022/05/27 10:44:52;;;;;;;17.10;3.45;;;14.60;99.90;;;;;;5066863;28;20044;-79
2022/05/27 10:47:52;;;;;;;24.08;3.45;;;14.70;99.90;;;;;;5050100;28;20049;-80
2022/05/27 10:50:47;;;;;;;16.35;3.35;;;14.60;99.90;;;;;;5059788;28;20044;-79
2022/05/27 10:53:16;;;;;;;;;;;16.00;99.90;;;;;;5054687;28;20041;-80
2022/05/27 10:55:47;;;;;;;15.70;2.53;;;14.80;99.90;;;;;;5072459;28;19923;-77
2022/05/27 11:04:34;;;;;;;8.05;2.25;;;14.60;99.90;;;;;;5062664;28;20531;-82
2022/05/27 11:07:38;;;;;;;11.07;2.80;;;14.60;99.90;;;;;;5059958;28;20117;-84
2022/05/27 11:10:36;;;;;;;15.95;2.90;;;14.60;99.90;;;;;;5061212;28;20037;-78
2022/05/27 11:16:07;;;;;;;24.15;3.85;;;14.60;99.90;;;;;;5066319;28;20557;-80
2022/05/27 11:18:54;;;;;;;15.07;3.45;;;14.70;99.90;;;;;;5064110;28;20080;-79
2022/05/27 11:21:48;;;;;;;9.27;2.20;;;14.70;99.90;;;;;;5061718;28;20127;-78
2022/05/27 11:24:48;;;;;;;15.38;3.15;;;14.70;99.90;;;;;;5054567;28;20045;-77
2022/05/27 11:27:37;;;;;;;16.90;2.85;;;14.80;99.90;;;;;;5054921;28;20060;-79
2022/05/27 11:30:13;;;;;;;15.30;3.90;;;14.60;99.90;;;;;;5066672;28;20067;-79
2022/05/27 11:32:56;;;;;;;15.10;3.97;;;14.50;99.90;;;;;;5057834;28;20041;-85
2022/05/27 11:35:43;;;;;;;18.83;3.33;;;14.40;99.90;;;;;;5054984;28;20055;-79
2022/05/27 11:38:50;;;;;;;13.95;3.13;;;14.40;99.90;;;;;;5070515;28;20047;-80
2022/05/27 11:41:25;;;;;;;14.10;3.00;;;14.50;99.90;;;;;;5050500;28;20080;-79
2022/05/27 11:44:03;;;;;;;19.75;3.45;;;14.60;99.90;;;;;;5064008;28;20045;-80
2022/05/27 11:46:38;;;;;;;18.55;3.20;;;14.60;99.90;;;;;;5071200;28;20045;-78
2022/05/27 11:49:40;;;;;;;10.05;2.63;;;14.60;99.90;;;;;;5055505;28;20072;-80
2022/05/27 11:52:34;;;;;;;15.70;4.90;;;14.40;99.90;;;;;;5057937;28;20044;-79
2022/05/27 11:55:18;;;;;;;13.43;2.78;;;14.20;99.90;;;;;;5072931;28;20072;-80
2022/05/27 11:57:58;;;;;;;16.17;4.03;;;14.10;99.90;;;;;;5053797;28;20044;-81
2022/05/27 12:00:31;;;;;;;15.20;2.88;;;14.20;99.90;;;;;;5054435;28;20032;-79
2022/05/27 12:03:19;;;;;;;13.88;3.72;;;14.40;99.90;;;;;;5054123;28;20037;-79
2022/05/27 12:05:59;;;;;;;13.43;2.30;;;14.40;99.90;;;;;;5063886;28;20140;-83
2022/05/27 12:08:37;;;;;;;19.70;3.53;;;14.30;99.90;;;;;;5067430;28;20226;-80
2022/05/27 12:11:16;;;;;;;13.05;2.67;;;14.30;99.90;;;;;;5054140;28;20095;-81
2022/05/27 12:13:58;;;;;;;9.27;2.28;;;14.30;99.90;;;;;;5066024;28;20045;-80
2022/05/27 12:16:29;;;;;;;15.70;2.83;;;14.20;99.90;;;;;;5061966;28;20044;-79
2022/05/27 12:19:05;;;;;;;16.80;3.10;;;14.10;99.90;;;;;;5060426;28;20048;-80
2022/05/27 12:21:39;;;;;;;22.98;4.40;;;14.20;99.90;;;;;;5063859;28;20048;-79
2022/05/27 12:24:25;;;;;;;;;;;14.10;99.90;;;;;;5059353;28;20049;-79
2022/05/27 12:26:54;;;;;;;15.45;2.78;;;14.10;99.90;;;;;;5026386;28;20027;-80
2022/05/27 12:29:22;;;;;;;18.95;3.25;;;14.10;99.90;;;;;;5066972;28;20131;-82
2022/05/27 12:31:49;;;;;;;13.95;3.40;;;14.20;99.90;;;;;;5063726;28;20503;-80
2022/05/27 12:34:26;;;;;;;12.93;2.65;;;14.10;99.90;;;;;;5066367;28;20098;-80
2022/05/27 12:37:18;;;;;;;17.02;4.32;;;14.10;99.90;;;;;;5065076;28;20048;-80
2022/05/27 12:39:46;;;;;;;12.45;2.70;;;14.10;99.90;;;;;;5055348;28;20052;-82
2022/05/27 12:42:28;;;;;;;15.80;2.67;;;14.00;99.90;;;;;;5053758;28;20091;-79
2022/05/27 12:44:54;;;;;;;11.48;2.65;;;14.00;99.90;;;;;;5055855;28;20484;-80
2022/05/27 12:47:28;;;;;;;13.52;3.00;;;14.00;99.90;;;;;;5052071;28;20053;-78
2022/05/27 12:50:12;;;;;;;15.55;3.20;;;14.00;99.90;;;;;;5063103;28;20045;-79
2022/05/27 12:52:49;;;;;;;21.10;3.45;;;14.10;99.90;;;;;;5053486;28;20411;-80
2022/05/27 13:01:42;;;;;;;13.57;3.40;;;14.10;99.90;;;;;;5054273;28;20060;-80
2022/05/27 13:04:46;;;;;;;16.70;3.45;;;14.10;99.90;;;;;;5052804;28;20493;-81
2022/05/27 13:07:13;;;;;;;14.65;2.97;;;14.10;99.90;;;;;;5064699;28;20048;-78
2022/05/27 13:09:42;;;;;;;11.32;2.65;;;14.10;99.90;;;;;;5069224;28;20124;-80
2022/05/27 13:12:12;;;;;;;14.63;2.85;;;14.10;99.90;;;;;;5060005;28;20543;-79
2022/05/27 13:14:46;;;;;;;13.73;3.65;;;14.20;99.90;;;;;;5056368;28;20053;-81
2022/05/27 13:17:29;;;;;;;14.80;3.65;;;14.30;99.90;;;;;;5062857;28;20033;-82
2022/05/27 13:20:25;;;;;;;14.68;3.85;;;14.50;99.90;;;;;;5053447;28;20049;-83
2022/05/27 13:23:02;;;;;;;14.13;3.45;;;14.70;99.90;;;;;;5043565;28;20062;-79
2022/05/27 13:25:32;;;;;;;13.30;3.13;;;14.90;99.90;;;;;;5064257;28;20388;-79
2022/05/27 13:28:08;;;;;;;12.80;3.22;;;15.00;99.90;;;;;;5064186;28;20036;-80
2022/05/27 13:31:02;;;;;;;17.30;2.80;;;14.90;99.90;;;;;;5064834;28;20059;-80
2022/05/27 13:33:37;;;;;;;10.67;2.33;;;13.80;99.90;;;;;;5058095;28;20040;-82
2022/05/27 13:36:13;;;;;;;;;;;14.60;99.90;;;;;;5058248;28;20053;-79
2022/05/27 13:38:44;;;;;;;15.65;2.90;;;13.50;99.90;;;;;;5053348;28;19920;-81
2022/05/27 13:41:14;;;;;;;15.32;2.97;;;14.50;99.90;;;;;;5055488;28;20049;-79
2022/05/27 13:43:41;;;;;;;11.55;2.75;;;14.50;99.90;;;;;;5056285;28;20044;-80